createdAt,value
2023-01-10T00:00:11.515Z,21.77
2023-01-10T00:02:40.757Z,23.48
2023-01-10T00:05:10.710Z,18.67
2023-01-10T00:07:39.945Z,21.00
2023-01-10T00:10:11.872Z,32.67
2023-01-10T00:12:57.936Z,24.27
2023-01-10T00:15:27.209Z,25.65
2023-01-10T00:17:56.468Z,29.08
2023-01-10T00:20:25.672Z,19.50
2023-01-10T00:22:54.954Z,23.40
2023-01-10T00:25:26.404Z,8.77
2023-01-10T00:28:02.380Z,21.58
2023-01-10T00:30:32.026Z,18.63
2023-01-10T00:33:01.882Z,13.85
2023-01-10T00:35:30.959Z,15.45
2023-01-10T00:38:03.521Z,12.48
2023-01-10T00:40:34.369Z,24.20
2023-01-10T00:43:20.735Z,18.27
2023-01-10T00:45:50.127Z,15.50
2023-01-10T00:48:19.456Z,12.77
2023-01-10T00:50:48.594Z,9.38
2023-01-10T00:53:17.894Z,16.20
2023-01-10T00:55:48.619Z,13.75
2023-01-10T00:58:18.795Z,17.60
2023-01-10T01:00:50.207Z,27.27
2023-01-10T01:03:23.667Z,15.40
2023-01-10T01:05:52.889Z,14.05
2023-01-10T01:08:22.567Z,12.68
2023-01-10T01:10:53.291Z,21.70
2023-01-10T01:13:23.824Z,10.23
2023-01-10T01:15:53.097Z,14.00
2023-01-10T01:18:23.425Z,18.25
2023-01-10T01:20:56.681Z,14.18
2023-01-10T01:23:26.392Z,13.52
2023-01-10T01:25:57.657Z,11.43
2023-01-10T01:28:27.122Z,17.80
2023-01-10T01:30:56.269Z,19.40
2023-01-10T01:33:25.823Z,4.80
2023-01-10T01:35:54.937Z,13.90
2023-01-10T01:38:24.031Z,9.77
2023-01-10T01:40:53.201Z,11.75
2023-01-10T01:43:27.629Z,10.18
2023-01-10T01:45:57.823Z,7.40
2023-01-10T01:48:35.649Z,7.88
2023-01-10T01:51:09.656Z,15.35
2023-01-10T01:53:45.207Z,7.53
2023-01-10T01:56:18.390Z,14.30
2023-01-10T01:58:56.692Z,13.83
2023-01-10T02:01:26.261Z,16.08
2023-01-10T02:04:00.491Z,22.83
2023-01-10T02:06:29.757Z,10.00
2023-01-10T02:09:05.302Z,8.07
2023-01-10T02:11:34.383Z,20.20
2023-01-10T02:14:07.661Z,19.17
2023-01-10T02:16:36.772Z,10.65
2023-01-10T02:19:10.793Z,9.95
2023-01-10T02:22:11.237Z,23.67
2023-01-10T02:25:01.080Z,17.83
2023-01-10T02:27:39.401Z,25.92
2023-01-10T02:30:38.362Z,17.40
2023-01-10T02:33:16.332Z,24.52
2023-01-10T02:36:07.976Z,19.80
2023-01-10T02:38:54.800Z,19.60
2023-01-10T02:41:33.053Z,8.57
2023-01-10T02:44:09.347Z,18.87
2023-01-10T02:46:41.027Z,25.20
2023-01-10T02:49:11.657Z,16.77
2023-01-10T02:51:40.838Z,6.70
2023-01-10T02:54:14.696Z,8.73
2023-01-10T02:57:14.228Z,15.75
2023-01-10T03:00:17.281Z,18.33
2023-01-10T03:03:01.669Z,26.63
2023-01-10T03:05:45.055Z,14.85
2023-01-10T03:08:27.332Z,23.50
2023-01-10T03:11:00.559Z,18.05
2023-01-10T03:13:36.786Z,21.80
2023-01-10T03:16:09.991Z,11.05
2023-01-10T03:18:44.640Z,15.55
2023-01-10T03:21:16.421Z,7.78
2023-01-10T03:23:47.551Z,8.50
2023-01-10T03:26:22.582Z,14.02
2023-01-10T03:28:58.348Z,17.60
2023-01-10T03:31:33.875Z,6.43
2023-01-10T03:34:03.373Z,11.73
2023-01-10T03:36:39.176Z,13.52
2023-01-10T03:39:19.844Z,4.03
2023-01-10T03:41:52.619Z,14.73
2023-01-10T03:44:44.202Z,3.97
2023-01-10T03:47:20.167Z,20.10
2023-01-10T03:49:51.969Z,8.65
2023-01-10T03:52:23.380Z,17.83
2023-01-10T03:54:54.427Z,5.78
2023-01-10T03:57:26.136Z,22.83
2023-01-10T03:59:58.431Z,16.92
2023-01-10T04:02:29.472Z,19.67
2023-01-10T04:04:59.476Z,18.90
2023-01-10T04:07:30.260Z,12.43
2023-01-10T04:09:59.636Z,12.10
2023-01-10T04:12:29.038Z,22.52
2023-01-10T04:14:58.279Z,19.65
2023-01-10T04:17:27.559Z,18.25
2023-01-10T04:19:56.944Z,3.63
2023-01-10T04:22:26.225Z,10.82
2023-01-10T04:24:56.972Z,19.48
2023-01-10T04:27:26.176Z,23.30
2023-01-10T04:29:55.456Z,14.48
2023-01-10T04:32:24.721Z,33.08
2023-01-10T04:34:54.337Z,17.50
2023-01-10T04:37:23.565Z,18.23
2023-01-10T04:39:52.765Z,19.02
2023-01-10T04:42:23.870Z,18.50
2023-01-10T04:44:53.229Z,20.55
2023-01-10T04:47:22.445Z,24.35
2023-01-10T04:49:51.684Z,24.05
2023-01-10T04:52:20.998Z,17.58
2023-01-10T04:54:50.251Z,8.52
2023-01-10T04:57:19.567Z,13.95
2023-01-10T04:59:50.340Z,11.80
2023-01-10T05:02:19.789Z,15.00
2023-01-10T05:04:49.175Z,18.80
2023-01-10T05:07:18.419Z,17.50
2023-01-10T05:09:47.658Z,10.55
2023-01-10T05:12:17.230Z,8.60
2023-01-10T05:14:46.554Z,16.83
2023-01-10T05:17:17.352Z,7.72
2023-01-10T05:19:46.928Z,14.35
2023-01-10T05:22:17.792Z,8.63
2023-01-10T05:24:46.904Z,11.73
2023-01-10T05:27:16.164Z,9.77
2023-01-10T05:29:45.463Z,3.00
2023-01-10T05:32:16.065Z,13.63
2023-01-10T05:34:45.756Z,9.48
2023-01-10T05:37:14.907Z,11.23
2023-01-10T05:39:44.138Z,4.80
2023-01-10T05:42:14.745Z,21.73
2023-01-10T05:44:43.925Z,6.30
2023-01-10T05:47:13.337Z,8.18
2023-01-10T05:49:44.029Z,16.02
2023-01-10T05:52:13.165Z,10.05
2023-01-10T05:54:42.702Z,7.80
2023-01-10T05:57:11.904Z,11.07
2023-01-10T05:59:40.994Z,12.50
2023-01-10T06:02:10.363Z,9.82
2023-01-10T06:04:39.552Z,10.40
2023-01-10T06:07:10.315Z,12.93
2023-01-10T06:09:39.584Z,8.10
2023-01-10T06:12:08.871Z,14.75
2023-01-10T06:14:40.650Z,10.05
2023-01-10T06:17:10.661Z,15.02
2023-01-10T06:19:39.870Z,8.07
2023-01-10T06:22:10.524Z,18.35
2023-01-10T06:24:39.774Z,12.63
2023-01-10T06:27:09.118Z,17.83
2023-01-10T06:29:38.280Z,12.63
2023-01-10T06:32:07.636Z,15.98
2023-01-10T06:34:36.875Z,15.57
2023-01-10T06:37:07.356Z,19.98
2023-01-10T06:39:38.118Z,13.73
2023-01-10T06:42:07.543Z,9.57
2023-01-10T06:44:36.875Z,12.57
2023-01-10T06:47:06.266Z,17.73
2023-01-10T06:49:35.554Z,9.95
2023-01-10T06:52:04.848Z,13.30
2023-01-10T06:54:35.091Z,14.82
2023-01-10T06:57:06.519Z,14.45
2023-01-10T06:59:36.878Z,5.65
2023-01-10T07:02:06.155Z,6.95
2023-01-10T07:04:35.628Z,7.10
2023-01-10T07:07:05.404Z,18.33
2023-01-10T07:09:34.618Z,11.77
2023-01-10T07:12:05.479Z,2.80
2023-01-10T07:14:34.663Z,18.85
2023-01-10T07:17:03.770Z,11.90
2023-01-10T07:19:32.947Z,14.82
2023-01-10T07:22:02.024Z,19.58
2023-01-10T07:24:31.155Z,13.52
2023-01-10T07:27:00.241Z,9.88
2023-01-10T07:29:31.012Z,14.82
2023-01-10T07:32:00.158Z,18.55
2023-01-10T07:34:29.354Z,26.17
2023-01-10T07:36:58.441Z,15.48
2023-01-10T07:39:27.636Z,20.38
2023-01-10T07:41:56.759Z,5.97
2023-01-10T07:44:25.941Z,9.93
2023-01-10T07:46:56.616Z,17.48
2023-01-10T07:49:25.758Z,14.98
2023-01-10T07:51:55.223Z,12.73
2023-01-10T07:54:24.422Z,24.17
2023-01-10T07:56:53.591Z,11.98
2023-01-10T07:59:22.701Z,8.38
2023-01-10T08:01:51.783Z,8.32
2023-01-10T08:04:22.738Z,19.02
2023-01-10T08:06:52.111Z,11.57
2023-01-10T08:09:21.271Z,37.35
2023-01-10T08:11:50.381Z,16.42
2023-01-10T08:14:19.571Z,24.33
2023-01-10T08:16:48.686Z,18.30
2023-01-10T08:19:18.907Z,7.90
2023-01-10T08:21:49.937Z,15.40
2023-01-10T08:24:19.024Z,19.08
2023-01-10T08:26:48.138Z,15.57
2023-01-10T08:29:23.215Z,16.65
2023-01-10T08:31:52.372Z,18.58
2023-01-10T08:34:21.741Z,16.67
2023-01-10T08:36:53.957Z,8.27
2023-01-10T08:39:26.888Z,14.13
2023-01-10T08:41:56.271Z,18.58
2023-01-10T08:44:27.049Z,4.53
2023-01-10T08:46:57.225Z,13.75
2023-01-10T08:49:26.405Z,22.35
2023-01-10T08:51:57.085Z,24.85
2023-01-10T08:54:26.378Z,23.83
2023-01-10T08:56:55.472Z,10.57
2023-01-10T08:59:24.620Z,14.98
2023-01-10T09:01:53.743Z,12.02
2023-01-10T09:04:22.990Z,13.68
2023-01-10T09:06:52.113Z,19.98
2023-01-10T09:09:22.944Z,21.35
2023-01-10T09:11:52.092Z,24.30
2023-01-10T09:14:21.189Z,19.08
2023-01-10T09:16:52.131Z,20.15
2023-01-10T09:19:21.430Z,15.85
2023-01-10T09:21:50.480Z,16.00
2023-01-10T09:24:20.460Z,16.60
2023-01-10T09:26:51.046Z,14.68
2023-01-10T09:29:20.121Z,22.88
2023-01-10T09:31:49.211Z,12.88
2023-01-10T09:34:18.383Z,41.90
2023-01-10T09:36:47.856Z,25.42
2023-01-10T09:39:16.959Z,25.38
2023-01-10T09:41:59.119Z,22.67
2023-01-10T09:44:42.491Z,8.43
2023-01-10T09:47:22.963Z,22.33
2023-01-10T09:50:06.919Z,8.98
2023-01-10T09:52:40.381Z,34.40
2023-01-10T09:55:20.873Z,26.00
2023-01-10T09:57:53.346Z,20.58
2023-01-10T10:00:26.523Z,27.88
2023-01-10T10:02:57.312Z,28.85
2023-01-10T10:05:29.360Z,42.33
2023-01-10T10:08:00.722Z,29.77
2023-01-10T10:10:37.356Z,24.25
2023-01-10T10:13:26.966Z,22.02
2023-01-10T10:16:07.135Z,35.55
2023-01-10T10:18:45.544Z,39.42
2023-01-10T10:21:25.624Z,29.00
2023-01-10T10:24:21.562Z,33.00
2023-01-10T10:26:59.054Z,28.23
2023-01-10T10:29:53.147Z,44.72
2023-01-10T10:32:41.078Z,32.15
2023-01-10T10:35:17.200Z,33.78
2023-01-10T10:37:50.213Z,52.47
2023-01-10T10:40:22.213Z,47.67
2023-01-10T10:42:54.115Z,32.47
2023-01-10T10:45:35.718Z,46.25
2023-01-10T10:48:14.817Z,46.35
2023-01-10T10:50:52.367Z,48.03
2023-01-10T10:53:21.659Z,55.90
2023-01-10T10:55:51.207Z,43.08
2023-01-10T10:58:20.728Z,22.42
2023-01-10T11:00:51.360Z,26.50
2023-01-10T11:03:42.721Z,28.98
2023-01-10T11:06:12.476Z,34.90
2023-01-10T11:08:43.878Z,28.40
2023-01-10T11:11:28.761Z,43.75
2023-01-10T11:14:00.056Z,35.92
2023-01-10T11:16:33.299Z,48.85
2023-01-10T11:19:22.562Z,43.20
2023-01-10T11:21:57.365Z,53.28
2023-01-10T11:24:30.501Z,41.92
2023-01-10T11:27:01.781Z,41.78
2023-01-10T11:29:41.308Z,25.88
2023-01-10T11:32:15.772Z,25.20
2023-01-10T11:34:50.807Z,48.00
2023-01-10T11:37:25.613Z,33.65
2023-01-10T11:40:16.973Z,23.75
2023-01-10T11:42:46.830Z,30.25
2023-01-10T11:45:32.328Z,22.23
2023-01-10T11:48:26.970Z,31.92
2023-01-10T11:51:03.609Z,32.80
2023-01-10T11:53:43.612Z,31.90
2023-01-10T11:56:16.332Z,32.95
2023-01-10T11:58:45.839Z,20.35
2023-01-10T12:01:32.296Z,36.03
2023-01-10T12:04:03.365Z,48.92
2023-01-10T12:06:33.711Z,38.00
2023-01-10T12:09:02.995Z,38.58
2023-01-10T12:11:36.219Z,45.55
2023-01-10T12:14:20.335Z,56.83
2023-01-10T12:16:49.742Z,27.40
2023-01-10T12:19:20.529Z,28.85
2023-01-10T12:21:50.726Z,43.20
2023-01-10T12:24:25.220Z,25.60
2023-01-10T12:26:55.332Z,32.10
2023-01-10T12:29:28.575Z,24.60
2023-01-10T12:32:00.263Z,52.78
2023-01-10T12:34:41.080Z,43.00
2023-01-10T12:37:18.672Z,46.38
2023-01-10T12:39:51.050Z,38.55
2023-01-10T12:42:48.803Z,42.08
2023-01-10T12:45:23.203Z,42.38
2023-01-10T12:48:01.366Z,20.67
2023-01-10T12:50:38.980Z,44.05
2023-01-10T12:53:15.488Z,30.40
2023-01-10T12:58:50.943Z,34.03
2023-01-10T13:01:30.649Z,39.58
2023-01-10T13:04:07.277Z,30.35
2023-01-10T13:06:41.488Z,30.52
2023-01-10T13:09:16.453Z,51.08
2023-01-10T13:11:54.827Z,30.75
2023-01-10T13:14:29.526Z,32.95
2023-01-10T13:17:05.073Z,29.88
2023-01-10T13:19:34.252Z,41.50
2023-01-10T13:22:23.701Z,35.40
2023-01-10T13:25:01.089Z,23.20
2023-01-10T13:27:34.217Z,17.38
2023-01-10T13:30:05.327Z,26.25
2023-01-10T13:32:41.818Z,31.63
2023-01-10T13:35:18.105Z,66.70
2023-01-10T13:37:56.227Z,48.20
2023-01-10T13:40:28.735Z,24.27
2023-01-10T13:43:35.406Z,41.30
2023-01-10T13:46:36.168Z,27.10
2023-01-10T13:49:50.507Z,16.42
2023-01-10T13:52:37.649Z,17.60
2023-01-10T13:55:54.030Z,41.50
2023-01-10T13:59:18.651Z,43.22
2023-01-10T14:02:10.577Z,31.35
2023-01-10T14:04:43.194Z,31.20
2023-01-10T14:07:25.329Z,29.77
2023-01-10T14:10:00.207Z,32.47
2023-01-10T14:12:36.037Z,51.70
2023-01-10T14:15:22.691Z,41.35
2023-01-10T14:17:59.669Z,29.00
2023-01-10T14:20:30.519Z,33.80
2023-01-10T14:23:08.252Z,32.67
2023-01-10T14:25:39.326Z,41.22
2023-01-10T14:28:24.529Z,36.85
2023-01-10T14:31:05.659Z,32.65
2023-01-10T14:33:36.194Z,33.65
2023-01-10T14:36:10.813Z,22.70
2023-01-10T14:38:41.148Z,19.73
2023-01-10T14:41:18.535Z,29.73
2023-01-10T14:43:55.987Z,37.25
2023-01-10T14:46:31.758Z,24.17
2023-01-10T14:49:01.475Z,11.63
2023-01-10T14:51:31.971Z,22.08
2023-01-10T14:54:02.880Z,30.85
2023-01-10T14:56:39.187Z,26.90
2023-01-10T14:59:26.368Z,18.73
2023-01-10T15:01:58.297Z,27.73
2023-01-10T15:04:30.419Z,21.17
2023-01-10T15:07:03.068Z,26.48
2023-01-10T15:09:33.819Z,17.90
2023-01-10T15:12:05.879Z,24.55
2023-01-10T15:14:38.728Z,35.53
2023-01-10T15:17:10.253Z,41.00
2023-01-10T15:19:41.636Z,15.23
2023-01-10T15:22:26.245Z,13.40
2023-01-10T15:25:04.204Z,22.85
2023-01-10T15:27:34.349Z,27.73
2023-01-10T15:30:11.423Z,20.27
2023-01-10T15:32:42.107Z,22.98
2023-01-10T15:35:20.216Z,23.05
2023-01-10T15:37:54.269Z,15.57
2023-01-10T15:40:25.743Z,32.63
2023-01-10T15:43:27.804Z,19.60
2023-01-10T15:46:00.168Z,28.67
2023-01-10T15:48:34.595Z,27.13
2023-01-10T15:51:14.962Z,19.70
2023-01-10T15:53:57.924Z,19.85
2023-01-10T15:56:30.496Z,19.48
2023-01-10T15:59:00.886Z,22.90
2023-01-10T16:01:33.003Z,14.57
2023-01-10T16:04:27.809Z,15.98
2023-01-10T16:09:36.709Z,12.98
2023-01-10T16:12:22.839Z,21.08
2023-01-10T16:14:51.942Z,11.52
2023-01-10T16:17:22.477Z,8.95
2023-01-10T16:19:53.277Z,19.10
2023-01-10T16:22:22.638Z,19.23
2023-01-10T16:24:53.235Z,19.83
2023-01-10T16:27:22.375Z,15.82
2023-01-10T16:29:52.331Z,19.42
2023-01-10T16:32:22.956Z,17.33
2023-01-10T16:34:52.077Z,12.25
2023-01-10T16:37:21.163Z,13.50
2023-01-10T16:39:50.290Z,16.38
2023-01-10T16:42:36.280Z,22.95
2023-01-10T16:45:05.600Z,10.38
2023-01-10T16:47:36.180Z,5.93
2023-01-10T16:50:05.652Z,21.42
2023-01-10T16:52:34.845Z,11.55
2023-01-10T16:55:03.988Z,9.02
2023-01-10T16:57:33.201Z,13.55
2023-01-10T17:00:02.339Z,12.50
2023-01-10T17:02:31.723Z,24.10
2023-01-10T17:05:02.431Z,23.30
2023-01-10T17:07:31.584Z,11.27
2023-01-10T17:10:00.854Z,9.27
2023-01-10T17:12:34.679Z,12.88
2023-01-10T17:15:05.356Z,28.60
2023-01-10T17:17:37.804Z,11.68
2023-01-10T17:20:09.826Z,12.95
2023-01-10T17:22:38.995Z,14.23
2023-01-10T17:25:09.459Z,21.85
2023-01-10T17:27:38.564Z,14.80
2023-01-10T17:30:08.711Z,19.10
2023-01-10T17:32:37.932Z,9.68
2023-01-10T17:35:09.826Z,21.60
2023-01-10T17:37:38.934Z,9.35
2023-01-10T17:40:09.298Z,14.05
2023-01-10T17:42:38.449Z,9.50
2023-01-10T17:45:08.320Z,14.75
2023-01-10T17:47:37.472Z,19.48
2023-01-10T17:50:08.947Z,6.32
2023-01-10T17:52:38.060Z,19.58
2023-01-10T17:55:10.574Z,13.93
2023-01-10T17:57:39.750Z,17.63
2023-01-10T18:00:10.279Z,7.65
2023-01-10T18:02:39.562Z,17.60
2023-01-10T18:05:11.097Z,7.45
2023-01-10T18:07:40.229Z,10.45
2023-01-10T18:10:10.535Z,12.27
2023-01-10T18:12:39.878Z,4.00
2023-01-10T18:15:10.244Z,12.90
2023-01-10T18:17:39.390Z,16.58
2023-01-10T18:20:11.987Z,13.25
2023-01-10T18:22:58.381Z,9.35
2023-01-10T18:25:29.330Z,6.45
2023-01-10T18:28:00.497Z,5.30
2023-01-10T18:30:29.665Z,8.40
2023-01-10T18:32:58.981Z,18.52
2023-01-10T18:35:30.643Z,10.65
2023-01-10T18:37:59.936Z,14.52
2023-01-10T18:40:29.100Z,9.23
2023-01-10T18:42:58.947Z,2.42
2023-01-10T18:45:30.887Z,7.53
2023-01-10T18:48:00.160Z,8.48
2023-01-10T18:50:30.820Z,2.38
2023-01-10T18:53:01.325Z,5.05
2023-01-10T18:55:30.428Z,6.90
2023-01-10T18:57:59.627Z,11.95
2023-01-10T19:00:28.993Z,2.33
2023-01-10T19:02:59.949Z,7.63
2023-01-10T19:05:30.571Z,5.68
2023-01-10T19:08:00.841Z,7.35
2023-01-10T19:10:37.355Z,4.18
2023-01-10T19:13:14.254Z,5.45
2023-01-10T19:15:43.674Z,4.50
2023-01-10T19:18:13.121Z,10.70
2023-01-10T19:20:43.973Z,6.35
2023-01-10T19:23:13.232Z,10.60
2023-01-10T19:25:42.427Z,6.82
2023-01-10T19:28:11.563Z,3.25
2023-01-10T19:30:41.538Z,9.20
2023-01-10T19:33:10.960Z,3.88
2023-01-10T19:35:44.044Z,14.85
2023-01-10T19:38:13.429Z,2.50
2023-01-10T19:40:42.730Z,7.13
2023-01-10T19:43:12.016Z,5.60
2023-01-10T19:45:43.202Z,5.43
2023-01-10T19:48:12.492Z,10.38
2023-01-10T19:50:43.318Z,11.40
2023-01-10T19:53:12.600Z,5.20
2023-01-10T19:55:41.961Z,5.95
2023-01-10T19:58:11.236Z,2.50
2023-01-10T20:00:40.522Z,4.55
2023-01-10T20:03:09.745Z,3.95
2023-01-10T20:05:39.854Z,6.80
2023-01-10T20:08:10.581Z,2.72
2023-01-10T20:10:39.829Z,6.10
2023-01-10T20:13:10.361Z,3.70
2023-01-10T20:15:39.748Z,8.90
2023-01-10T20:18:09.118Z,5.65
2023-01-10T20:20:40.676Z,7.40
2023-01-10T20:23:12.696Z,4.15
2023-01-10T20:25:41.908Z,9.80
2023-01-10T20:28:11.222Z,6.43
2023-01-10T20:30:40.609Z,2.90
2023-01-10T20:33:09.829Z,8.38
2023-01-10T20:35:40.776Z,4.00
2023-01-10T20:38:11.581Z,8.02
2023-01-10T20:40:42.821Z,8.57
2023-01-10T20:43:12.127Z,7.50
2023-01-10T20:45:41.445Z,4.35
2023-01-10T20:48:11.181Z,8.13
2023-01-10T20:50:43.919Z,6.07
2023-01-10T20:53:16.246Z,6.38
2023-01-10T20:55:50.854Z,13.25
2023-01-10T20:58:28.258Z,12.98
2023-01-10T21:00:57.501Z,6.38
2023-01-10T21:03:27.046Z,8.45
2023-01-10T21:05:58.948Z,9.15
2023-01-10T21:08:30.945Z,3.78
2023-01-10T21:11:00.331Z,7.15
2023-01-10T21:13:29.730Z,6.03
2023-01-10T21:16:00.378Z,5.45
2023-01-10T21:18:33.558Z,1.27
2023-01-10T21:21:03.371Z,9.40
2023-01-10T21:23:34.099Z,6.03
2023-01-10T21:26:04.833Z,8.00
2023-01-10T21:28:35.747Z,8.25
2023-01-10T21:31:05.099Z,15.25
2023-01-10T21:33:34.662Z,8.32
2023-01-10T21:36:03.903Z,5.28
2023-01-10T21:38:36.652Z,6.43
2023-01-10T21:41:10.509Z,14.68
2023-01-10T21:43:44.743Z,8.35
2023-01-10T21:46:14.238Z,12.60
2023-01-10T21:48:43.442Z,10.50
2023-01-10T21:51:12.670Z,4.90
2023-01-10T21:53:43.561Z,7.72
2023-01-10T21:56:13.064Z,7.70
2023-01-10T21:58:42.332Z,3.17
2023-01-10T22:01:11.608Z,4.15
2023-01-10T22:03:40.949Z,5.13
2023-01-10T22:06:10.559Z,9.43
2023-01-10T22:08:39.782Z,4.78
2023-01-10T22:11:11.147Z,14.70
2023-01-10T22:13:40.839Z,11.10
2023-01-10T22:16:10.510Z,10.23
2023-01-10T22:18:39.854Z,7.35
2023-01-10T22:21:09.135Z,3.20
2023-01-10T22:23:38.415Z,10.98
2023-01-10T22:26:11.886Z,9.30
2023-01-10T22:28:41.253Z,7.05
2023-01-10T22:31:10.933Z,8.25
2023-01-10T22:33:40.295Z,6.22
2023-01-10T22:36:12.040Z,1.92
2023-01-10T22:38:42.073Z,3.65
2023-01-10T22:41:14.607Z,6.75
2023-01-10T22:43:43.875Z,2.63
2023-01-10T22:46:16.170Z,6.13
2023-01-10T22:48:46.008Z,6.20
2023-01-10T22:51:15.826Z,5.53
2023-01-10T22:53:45.259Z,8.82
2023-01-10T22:56:15.929Z,2.72
2023-01-10T22:58:48.507Z,5.00
2023-01-10T23:01:19.016Z,2.87
2023-01-10T23:03:48.482Z,4.53
2023-01-10T23:06:18.847Z,5.55
2023-01-10T23:08:48.662Z,5.72
2023-01-10T23:11:21.506Z,9.00
2023-01-10T23:13:51.607Z,8.90
2023-01-10T23:16:22.625Z,3.08
2023-01-10T23:18:52.203Z,9.43
2023-01-10T23:21:21.455Z,14.15
2023-01-10T23:23:50.758Z,12.73
2023-01-10T23:26:21.554Z,9.77
2023-01-10T23:28:52.853Z,4.00
2023-01-10T23:31:24.158Z,20.02
2023-01-10T23:33:53.585Z,13.27
2023-01-10T23:36:24.165Z,10.48
2023-01-10T23:38:53.448Z,15.70
2023-01-10T23:41:24.504Z,20.92
2023-01-10T23:43:54.008Z,14.57
2023-01-10T23:46:23.301Z,26.40
2023-01-10T23:48:52.669Z,30.10
2023-01-10T23:51:21.949Z,10.25
2023-01-10T23:53:51.250Z,10.15
2023-01-10T23:56:20.704Z,14.13
2023-01-10T23:58:54.851Z,12.43
